WAOO/BDJ METAR and TAF weather

Enter ICAO airport designator
Station Type Date Time Source
WAOO METAR 2021/04/13 07:30 UTC NOAA

WAOO 130730Z 17004KT 9999 SCT018 27/23 Q1008 NOSIG


Station Type Date Time Source
WAOO Decoded METAR 2021/04/13 07:30 UTC NOAA

Station name not available
Apr 13, 2021 - 03:30 AM EDT / 2021.04.13 0730 UTC
Wind: from the S (170 degrees) at 5 MPH (4 KT):0
Visibility: greater than 7 mile(s):0
Sky conditions: partly cloudy
Temperature: 80 F (27 C)
Dew Point: 73 F (23 C)
Relative Humidity: 78%
Pressure (altimeter): 29.77 in. Hg (1008 hPa)
ob: WAOO 130730Z 17004KT 9999 SCT018 27/23 Q1008 NOSIG
cycle: 7

Station Type Date Time Source
WAOO TAF 2021/04/13 06:00 UTC NOAA

TAF WAOO 130500Z 1306/1406 24008KT 9999 SCT017
TEMPO 1306/1310 6000 TSRA FEW015CB

Example: see airport list